Time;durP1;ratioP1;P1;durP2;ratioP2;P2;SDS_P1;SDS_P2;PMS_P1;PMS_P2;Temp;Humidity;BMP_temperature;BMP_pressure;BME280_temperature;BME280_humidity;BME280_pressure;Samples;Min_cycle;Max_cycle;Signal;HPM_P1;HPM_P2
2023/03/05 00:01:41;;;;;;;26.47;17.80;;;6.10;64.60;;;;;;6256818;28;20481;-63
2023/03/05 00:04:44;;;;;;;25.73;17.97;;;6.00;65.60;;;;;;6274499;28;20949;-62
2023/03/05 00:07:47;;;;;;;23.20;17.53;;;6.10;66.00;;;;;;6252766;28;20978;-62
2023/03/05 00:10:56;;;;;;;28.30;18.20;;;6.00;66.30;;;;;;6248932;28;20494;-63
2023/03/05 00:14:03;;;;;;;24.10;17.97;;;6.00;67.00;;;;;;6249430;28;20508;-63
2023/03/05 00:17:06;;;;;;;25.10;18.10;;;6.00;67.60;;;;;;6249439;28;20466;-63
2023/03/05 00:20:11;;;;;;;26.87;17.90;;;6.00;67.70;;;;;;6249450;28;20475;-63
2023/03/05 00:23:14;;;;;;;24.50;18.30;;;5.90;68.10;;;;;;6257516;28;20479;-63
2023/03/05 00:26:17;;;;;;;43.00;32.50;;;6.00;68.30;;;;;;6261425;28;20481;-63
2023/03/05 00:29:22;;;;;;;35.80;23.63;;;6.00;68.30;;;;;;6249760;28;20813;-63
2023/03/05 00:32:25;;;;;;;27.37;21.27;;;6.00;68.50;;;;;;6249368;28;20490;-63
2023/03/05 00:35:28;;;;;;;29.97;21.80;;;6.00;68.60;;;;;;6244675;28;20470;-63
2023/03/05 00:38:32;;;;;;;25.40;18.80;;;6.00;69.20;;;;;;6250367;28;20536;-63
2023/03/05 00:41:35;;;;;;;29.13;18.83;;;6.00;69.70;;;;;;6252553;28;20474;-62
2023/03/05 00:44:39;;;;;;;27.60;20.63;;;5.90;69.50;;;;;;6252506;28;20478;-62
2023/03/05 00:47:43;;;;;;;29.93;24.17;;;5.90;69.70;;;;;;6252272;28;20474;-62
2023/03/05 00:50:46;;;;;;;22.50;18.33;;;5.90;70.10;;;;;;6235986;28;20482;-62
2023/03/05 00:53:49;;;;;;;24.90;17.27;;;5.90;70.30;;;;;;6228368;28;20463;-62
2023/03/05 00:56:53;;;;;;;27.80;18.60;;;5.80;70.30;;;;;;6228380;28;20467;-62
2023/03/05 00:59:57;;;;;;;24.03;18.60;;;5.80;70.70;;;;;;6228880;28;20483;-62
2023/03/05 01:03:00;;;;;;;24.80;18.87;;;5.80;71.00;;;;;;6228554;28;20534;-62
2023/03/05 01:06:06;;;;;;;24.17;17.70;;;5.80;71.40;;;;;;6234727;28;20486;-62
2023/03/05 01:09:09;;;;;;;21.60;18.07;;;5.70;71.30;;;;;;6253039;28;20486;-62
2023/03/05 01:12:12;;;;;;;25.43;18.97;;;5.70;71.30;;;;;;6252678;28;20793;-63
2023/03/05 01:15:17;;;;;;;21.43;16.03;;;5.60;72.00;;;;;;6252401;28;20467;-63
2023/03/05 01:18:20;;;;;;;28.40;18.13;;;5.60;72.50;;;;;;6252294;28;20482;-62
2023/03/05 01:21:24;;;;;;;22.03;17.70;;;5.60;72.70;;;;;;6252681;28;20486;-62
2023/03/05 01:24:27;;;;;;;23.67;17.27;;;5.50;73.00;;;;;;6252509;28;20483;-63
2023/03/05 01:27:30;;;;;;;21.27;17.23;;;5.50;73.50;;;;;;6252179;28;20983;-66
2023/03/05 01:30:35;;;;;;;21.77;17.50;;;5.50;74.00;;;;;;6252190;28;20471;-63
2023/03/05 01:33:38;;;;;;;22.53;17.57;;;5.50;74.00;;;;;;6251475;28;20489;-63
2023/03/05 01:36:42;;;;;;;22.37;16.93;;;5.50;74.10;;;;;;6252088;28;20490;-63
2023/03/05 01:39:45;;;;;;;21.60;17.00;;;5.40;74.30;;;;;;6248145;28;20479;-68
2023/03/05 01:42:55;;;;;;;23.07;16.93;;;5.40;74.50;;;;;;6253170;28;20470;-68
2023/03/05 01:46:33;;;;;;;23.37;17.07;;;5.40;74.70;;;;;;6251935;28;20477;-65
2023/03/05 01:49:40;;;;;;;27.63;18.63;;;5.40;74.90;;;;;;6251493;28;20936;-63
2023/03/05 01:52:48;;;;;;;19.57;15.60;;;5.30;74.90;;;;;;6251290;28;20463;-66
2023/03/05 01:55:51;;;;;;;24.20;16.90;;;5.20;75.30;;;;;;6252334;28;20471;-66
2023/03/05 01:59:02;;;;;;;21.73;17.00;;;5.10;75.80;;;;;;6253092;28;20467;-65
2023/03/05 02:02:07;;;;;;;23.77;16.60;;;5.10;76.10;;;;;;6260121;28;20474;-62
2023/03/05 02:05:13;;;;;;;23.43;17.20;;;5.00;76.20;;;;;;6275607;28;20470;-63
2023/03/05 02:08:19;;;;;;;20.37;16.07;;;5.00;76.70;;;;;;6230554;28;20476;-65
2023/03/05 02:11:22;;;;;;;21.00;16.30;;;4.90;77.00;;;;;;6227924;28;20472;-66
2023/03/05 02:14:26;;;;;;;25.37;17.27;;;4.90;77.20;;;;;;6228143;28;20968;-66
2023/03/05 02:17:30;;;;;;;22.67;16.07;;;4.80;77.70;;;;;;6226439;28;20472;-66
2023/03/05 02:20:46;;;;;;;20.00;15.77;;;4.80;78.20;;;;;;6226781;28;21017;-63
2023/03/05 02:23:50;;;;;;;21.77;15.63;;;4.70;78.50;;;;;;6226184;28;20963;-67
2023/03/05 02:26:54;;;;;;;23.37;18.00;;;4.70;78.80;;;;;;6228157;28;20479;-65
2023/03/05 02:29:57;;;;;;;21.20;17.33;;;4.70;79.10;;;;;;6226398;28;20472;-65
2023/03/05 02:33:00;;;;;;;26.87;17.63;;;4.70;79.20;;;;;;6226727;28;20805;-63
2023/03/05 02:36:04;;;;;;;25.93;16.93;;;4.70;79.80;;;;;;6246882;28;20471;-63
2023/03/05 02:39:09;;;;;;;22.87;16.83;;;4.60;79.90;;;;;;6250854;28;20790;-63
2023/03/05 02:42:12;;;;;;;25.53;16.67;;;4.60;80.00;;;;;;6250960;28;20776;-68
2023/03/05 02:45:16;;;;;;;25.73;17.67;;;4.50;80.20;;;;;;6250605;28;20478;-65
2023/03/05 02:48:19;;;;;;;24.60;17.43;;;4.50;80.50;;;;;;6250277;28;20479;-65
2023/03/05 02:51:22;;;;;;;24.23;16.20;;;4.50;81.00;;;;;;6250228;28;20486;-65
2023/03/05 02:54:28;;;;;;;27.40;18.40;;;4.40;81.50;;;;;;6250471;28;20478;-65
2023/03/05 02:57:31;;;;;;;26.47;16.87;;;4.40;81.80;;;;;;6250106;28;20497;-66
2023/03/05 03:00:34;;;;;;;22.47;16.60;;;4.30;82.10;;;;;;6250528;28;20758;-65
2023/03/05 03:03:38;;;;;;;23.50;17.50;;;4.30;82.30;;;;;;6272039;28;20477;-65
2023/03/05 03:06:41;;;;;;;23.13;16.10;;;4.30;82.50;;;;;;6263683;28;20471;-66
2023/03/05 03:09:46;;;;;;;20.93;15.90;;;4.20;82.60;;;;;;6250993;28;20483;-66
2023/03/05 03:12:49;;;;;;;20.83;15.30;;;4.20;83.30;;;;;;6251354;28;20471;-67
2023/03/05 03:16:02;;;;;;;20.63;16.27;;;4.10;83.70;;;;;;6249712;28;20479;-65
2023/03/05 03:19:05;;;;;;;24.03;16.83;;;4.10;84.10;;;;;;6249517;28;20834;-63
2023/03/05 03:22:09;;;;;;;20.93;16.40;;;4.10;84.10;;;;;;6249712;28;20985;-65
2023/03/05 03:25:17;;;;;;;21.70;16.87;;;4.10;84.50;;;;;;6249778;28;20478;-65
2023/03/05 03:28:20;;;;;;;19.40;15.77;;;4.00;84.60;;;;;;6249307;28;20478;-65
2023/03/05 03:31:23;;;;;;;25.10;17.13;;;4.00;84.90;;;;;;6249690;28;20879;-65
2023/03/05 03:34:27;;;;;;;20.33;15.77;;;4.00;85.20;;;;;;6249686;28;20458;-65
2023/03/05 03:37:31;;;;;;;23.77;17.53;;;3.90;85.50;;;;;;6249324;28;20485;-65
2023/03/05 03:40:36;;;;;;;23.27;18.73;;;3.90;85.70;;;;;;6229649;28;20455;-63
2023/03/05 03:43:39;;;;;;;21.80;16.80;;;3.80;86.30;;;;;;6236461;28;20463;-64
2023/03/05 03:46:44;;;;;;;20.30;15.67;;;3.70;86.90;;;;;;6227175;28;20474;-64
2023/03/05 03:49:47;;;;;;;23.47;18.00;;;3.70;87.10;;;;;;6224932;28;20477;-65
2023/03/05 03:52:51;;;;;;;21.60;16.40;;;3.70;87.90;;;;;;6237390;28;20485;-63
2023/03/05 03:55:59;;;;;;;20.53;15.87;;;3.70;88.30;;;;;;6243158;28;20486;-66
2023/03/05 03:59:03;;;;;;;21.10;15.70;;;3.70;88.50;;;;;;6237837;28;20472;-65
2023/03/05 04:02:06;;;;;;;20.93;15.43;;;3.70;88.90;;;;;;6245380;28;20550;-66
2023/03/05 04:05:10;;;;;;;21.10;15.83;;;3.70;89.30;;;;;;6235254;28;20805;-63
2023/03/05 04:08:13;;;;;;;22.30;17.20;;;3.70;89.80;;;;;;6227578;28;20476;-64
2023/03/05 04:11:18;;;;;;;19.47;16.57;;;3.70;89.80;;;;;;6225267;28;20464;-64
2023/03/05 04:14:21;;;;;;;23.60;16.37;;;3.60;89.70;;;;;;6227861;28;20978;-66
2023/03/05 04:17:25;;;;;;;30.40;16.87;;;3.60;89.70;;;;;;6230582;28;20481;-67
2023/03/05 04:20:28;;;;;;;23.90;16.00;;;3.60;89.70;;;;;;6230489;28;20481;-64
2023/03/05 04:23:31;;;;;;;21.30;15.07;;;3.60;90.20;;;;;;6230079;28;20480;-67
2023/03/05 04:26:36;;;;;;;25.63;17.57;;;3.60;90.00;;;;;;6240181;28;20470;-67
2023/03/05 04:29:39;;;;;;;22.30;16.63;;;3.50;90.00;;;;;;6255217;28;20466;-65
2023/03/05 04:32:42;;;;;;;22.47;16.40;;;3.50;90.20;;;;;;6253270;28;20977;-62
2023/03/05 04:35:46;;;;;;;21.53;16.27;;;3.50;90.40;;;;;;6272267;28;20473;-62
2023/03/05 04:38:49;;;;;;;26.20;16.70;;;3.50;90.50;;;;;;6278464;28;20489;-65
2023/03/05 04:41:53;;;;;;;22.13;14.57;;;3.40;90.70;;;;;;6255722;28;20810;-65
2023/03/05 04:44:57;;;;;;;24.20;15.50;;;3.40;90.90;;;;;;6253622;28;20483;-65
2023/03/05 04:48:00;;;;;;;20.87;16.10;;;3.40;90.90;;;;;;6253265;28;20482;-66
2023/03/05 04:51:03;;;;;;;22.93;17.80;;;3.40;90.90;;;;;;6249305;28;20478;-65
2023/03/05 04:54:07;;;;;;;23.53;17.37;;;3.30;91.00;;;;;;6253195;28;20483;-68
2023/03/05 04:57:11;;;;;;;20.20;16.00;;;3.30;91.30;;;;;;6253004;28;20466;-67
2023/03/05 05:00:17;;;;;;;20.00;15.00;;;3.30;91.50;;;;;;6253272;28;20951;-67
2023/03/05 05:03:20;;;;;;;22.53;16.20;;;3.30;91.60;;;;;;6252674;28;20474;-66
2023/03/05 05:06:23;;;;;;;24.07;16.17;;;3.30;91.70;;;;;;6252940;28;20475;-67
2023/03/05 05:09:27;;;;;;;19.90;16.30;;;3.30;91.80;;;;;;6254789;28;20475;-66
2023/03/05 05:12:31;;;;;;;22.27;16.93;;;3.20;91.90;;;;;;6255753;28;20474;-64
2023/03/05 05:15:35;;;;;;;23.63;16.40;;;3.20;92.30;;;;;;6258636;28;20486;-64
2023/03/05 05:18:38;;;;;;;20.47;16.93;;;3.20;92.50;;;;;;6253437;28;20467;-64
2023/03/05 05:21:41;;;;;;;23.77;16.90;;;3.20;92.40;;;;;;6252488;28;20958;-64
2023/03/05 05:24:44;;;;;;;23.23;17.03;;;3.20;92.30;;;;;;6252070;28;20496;-67
2023/03/05 05:27:49;;;;;;;22.20;17.30;;;3.10;92.50;;;;;;6252398;28;20471;-62
2023/03/05 05:30:52;;;;;;;28.17;17.50;;;3.10;92.80;;;;;;6252033;28;20486;-62
2023/03/05 05:33:56;;;;;;;22.77;17.90;;;3.10;93.40;;;;;;6252329;28;20475;-62
2023/03/05 05:36:59;;;;;;;25.10;18.00;;;3.00;93.20;;;;;;6252243;28;20477;-62
2023/03/05 05:40:03;;;;;;;22.53;16.37;;;3.00;93.50;;;;;;6256638;28;20496;-62
2023/03/05 05:43:08;;;;;;;25.33;17.30;;;3.10;93.50;;;;;;6253888;28;20467;-64
2023/03/05 05:46:14;;;;;;;23.40;17.13;;;3.00;93.80;;;;;;6252537;28;20478;-64
2023/03/05 05:49:17;;;;;;;20.03;16.60;;;3.10;93.90;;;;;;6252056;28;20490;-65
2023/03/05 05:52:20;;;;;;;19.73;14.63;;;3.20;93.70;;;;;;6252267;28;20438;-65
2023/03/05 05:55:24;;;;;;;20.67;16.13;;;3.20;93.60;;;;;;6252134;28;20450;-66
2023/03/05 05:58:28;;;;;;;24.10;17.43;;;3.10;93.70;;;;;;6251907;28;20472;-65
2023/03/05 06:01:33;;;;;;;19.07;17.00;;;3.20;93.70;;;;;;6251650;28;20489;-66
2023/03/05 06:04:37;;;;;;;19.80;16.00;;;3.30;93.70;;;;;;6251800;28;20459;-65
2023/03/05 06:07:40;;;;;;;19.70;16.53;;;3.30;93.80;;;;;;6254324;28;20791;-67
2023/03/05 06:10:43;;;;;;;20.20;15.80;;;3.30;93.70;;;;;;6252506;28;20467;-62
2023/03/05 06:13:49;;;;;;;22.83;16.37;;;3.40;93.60;;;;;;6251431;28;20479;-65
2023/03/05 06:16:52;;;;;;;22.63;15.27;;;3.40;93.60;;;;;;6251489;28;20473;-64
2023/03/05 06:19:56;;;;;;;24.60;15.03;;;3.50;93.60;;;;;;6250814;28;20772;-63
2023/03/05 06:22:59;;;;;;;26.63;16.20;;;3.50;93.50;;;;;;6251476;28;20486;-63
2023/03/05 06:26:04;;;;;;;25.90;16.40;;;3.50;93.40;;;;;;6251177;28;20502;-62
2023/03/05 06:29:09;;;;;;;22.43;16.73;;;3.70;93.10;;;;;;6251263;28;20471;-68
2023/03/05 06:32:12;;;;;;;18.30;14.77;;;3.80;92.80;;;;;;6251387;28;20471;-65
2023/03/05 06:35:15;;;;;;;21.07;15.97;;;3.80;92.70;;;;;;6250605;28;20605;-63
2023/03/05 06:38:18;;;;;;;19.70;15.70;;;3.90;92.60;;;;;;6250936;28;20497;-65
2023/03/05 06:41:24;;;;;;;25.53;16.03;;;4.00;92.50;;;;;;6251267;28;20477;-64
2023/03/05 06:44:28;;;;;;;21.37;16.13;;;4.00;92.50;;;;;;6251094;28;20471;-66
2023/03/05 06:47:32;;;;;;;25.73;17.10;;;4.10;92.70;;;;;;6250626;28;20483;-65
2023/03/05 06:50:35;;;;;;;22.67;15.43;;;4.20;92.80;;;;;;6249004;28;20474;-64
2023/03/05 06:53:39;;;;;;;20.80;16.43;;;4.30;92.80;;;;;;6242926;28;20459;-64
2023/03/05 06:56:44;;;;;;;21.20;16.43;;;4.30;92.70;;;;;;6238570;28;20466;-64
2023/03/05 06:59:49;;;;;;;20.17;15.00;;;4.40;92.40;;;;;;6246956;28;20479;-63
2023/03/05 07:02:52;;;;;;;24.70;15.70;;;4.60;92.50;;;;;;6252208;28;20994;-63
2023/03/05 07:05:55;;;;;;;24.73;14.97;;;4.70;92.00;;;;;;6238543;28;20467;-67
2023/03/05 07:09:00;;;;;;;22.60;17.87;;;4.90;91.70;;;;;;6245418;28;20962;-67
2023/03/05 07:12:04;;;;;;;23.57;18.13;;;4.90;91.50;;;;;;6236520;28;20467;-67
2023/03/05 07:15:09;;;;;;;23.60;15.77;;;5.10;91.40;;;;;;6246248;28;20475;-67
2023/03/05 07:18:13;;;;;;;18.77;14.73;;;5.30;91.30;;;;;;6237990;28;20470;-66
2023/03/05 07:21:19;;;;;;;21.53;16.20;;;5.40;91.00;;;;;;6250177;28;20499;-65
2023/03/05 07:24:23;;;;;;;20.60;16.30;;;5.60;90.90;;;;;;6250772;28;20478;-68
2023/03/05 07:27:26;;;;;;;21.33;16.10;;;5.70;90.80;;;;;;6250830;28;20491;-67
2023/03/05 07:30:31;;;;;;;22.03;16.33;;;5.90;90.70;;;;;;6252789;28;20484;-66
2023/03/05 07:33:35;;;;;;;22.20;16.63;;;6.10;90.20;;;;;;6254688;28;20475;-65
2023/03/05 07:36:39;;;;;;;18.77;15.30;;;6.30;89.60;;;;;;6250622;28;20775;-65
2023/03/05 07:39:42;;;;;;;23.07;16.50;;;6.40;88.90;;;;;;6250488;28;20479;-66
2023/03/05 07:42:49;;;;;;;20.60;15.40;;;6.50;88.10;;;;;;6250109;28;20975;-65
2023/03/05 07:45:53;;;;;;;21.90;16.70;;;6.60;87.70;;;;;;6249860;28;20485;-65
2023/03/05 07:48:57;;;;;;;21.43;16.77;;;6.80;87.20;;;;;;6257169;28;20479;-68
2023/03/05 07:52:00;;;;;;;25.13;17.87;;;7.00;86.70;;;;;;6257907;28;20477;-67
2023/03/05 07:55:03;;;;;;;23.90;16.97;;;7.20;85.60;;;;;;6258127;28;20485;-66
2023/03/05 07:58:07;;;;;;;23.23;17.50;;;7.40;84.70;;;;;;6258419;28;20475;-67
2023/03/05 08:01:14;;;;;;;20.47;18.27;;;7.60;83.60;;;;;;6259686;28;20475;-67
2023/03/05 08:04:17;;;;;;;21.63;16.80;;;9.00;82.70;;;;;;6282258;28;20464;-66
2023/03/05 08:07:21;;;;;;;26.60;18.07;;;10.70;74.40;;;;;;6264719;28;20564;-67
2023/03/05 08:10:24;;;;;;;20.33;16.07;;;10.80;67.90;;;;;;6259671;28;20443;-67
2023/03/05 08:13:27;;;;;;;19.87;16.40;;;10.20;67.50;;;;;;6259538;28;20443;-66
2023/03/05 08:16:32;;;;;;;25.83;19.33;;;9.90;69.30;;;;;;6257871;28;20928;-68
2023/03/05 08:19:35;;;;;;;21.40;16.93;;;9.80;69.80;;;;;;6258501;28;20482;-68
2023/03/05 08:22:38;;;;;;;21.80;17.60;;;9.80;70.80;;;;;;6257930;28;20914;-66
2023/03/05 08:25:42;;;;;;;21.60;18.43;;;10.10;68.80;;;;;;6256823;28;20485;-66
2023/03/05 08:28:45;;;;;;;22.30;18.73;;;10.30;67.50;;;;;;6257516;28;20486;-66
2023/03/05 08:31:50;;;;;;;18.80;16.43;;;10.60;66.80;;;;;;6257876;28;20478;-63
2023/03/05 08:34:57;;;;;;;20.40;17.70;;;10.80;65.60;;;;;;6262503;28;20820;-63
2023/03/05 08:38:00;;;;;;;24.77;19.70;;;11.40;67.50;;;;;;6257438;28;20485;-63
2023/03/05 08:41:04;;;;;;;21.97;18.40;;;13.70;62.20;;;;;;6257288;28;20474;-67
2023/03/05 08:44:07;;;;;;;23.17;19.77;;;16.70;52.60;;;;;;6256965;28;20462;-67
2023/03/05 08:47:12;;;;;;;21.97;19.67;;;19.40;44.50;;;;;;6257350;28;20466;-67
2023/03/05 08:50:16;;;;;;;22.23;20.00;;;21.50;37.60;;;;;;6256927;28;20235;-64
2023/03/05 08:53:20;;;;;;;24.47;21.97;;;22.90;32.60;;;;;;6256114;28;20243;-64
2023/03/05 08:56:25;;;;;;;23.20;20.80;;;23.40;30.70;;;;;;6256529;28;20228;-66
2023/03/05 08:59:28;;;;;;;24.20;22.07;;;23.80;29.50;;;;;;6254134;28;20247;-66
2023/03/05 09:02:34;;;;;;;23.17;20.77;;;25.10;27.90;;;;;;6265710;28;20616;-66
2023/03/05 09:05:37;;;;;;;23.43;21.43;;;25.70;26.30;;;;;;6275253;28;20307;-66
2023/03/05 09:08:41;;;;;;;21.27;19.37;;;26.70;25.20;;;;;;6248408;28;20247;-64
2023/03/05 09:11:44;;;;;;;22.60;20.70;;;27.00;24.70;;;;;;6253497;28;20235;-64
2023/03/05 09:14:47;;;;;;;23.93;21.63;;;28.10;23.60;;;;;;6253535;28;20227;-64
2023/03/05 09:17:52;;;;;;;23.47;21.30;;;29.40;22.10;;;;;;6253387;28;20238;-67
2023/03/05 09:20:55;;;;;;;23.10;21.03;;;30.10;20.90;;;;;;6253660;28;20227;-64
2023/03/05 09:23:59;;;;;;;23.57;21.40;;;28.40;21.60;;;;;;6254178;28;20246;-66
2023/03/05 09:27:02;;;;;;;24.40;22.30;;;28.30;21.70;;;;;;6258762;28;20255;-67
2023/03/05 09:30:07;;;;;;;22.63;20.47;;;28.20;21.50;;;;;;6256063;28;20235;-68
2023/03/05 09:33:11;;;;;;;21.53;19.80;;;28.50;21.10;;;;;;6253726;28;20223;-64
2023/03/05 09:36:19;;;;;;;20.73;18.83;;;27.90;20.70;;;;;;6253268;28;20823;-67
2023/03/05 09:39:22;;;;;;;22.53;20.13;;;27.40;21.40;;;;;;6252533;28;20243;-66
2023/03/05 09:42:38;;;;;;;21.17;19.27;;;27.70;21.40;;;;;;6253164;28;20640;-68
2023/03/05 09:45:55;;;;;;;20.13;18.40;;;29.10;20.50;;;;;;6253009;28;20238;-68
2023/03/05 09:49:08;;;;;;;20.60;18.80;;;27.70;20.50;;;;;;6252702;28;20239;-68
2023/03/05 09:52:16;;;;;;;21.10;19.10;;;27.10;21.50;;;;;;6252510;28;20231;-67
2023/03/05 09:55:26;;;;;;;22.10;20.00;;;27.30;21.30;;;;;;6252723;28;20536;-69
2023/03/05 09:58:35;;;;;;;21.73;19.83;;;26.80;21.40;;;;;;6252167;28;20553;-68
2023/03/05 10:01:42;;;;;;;19.70;17.93;;;26.30;22.80;;;;;;6252395;28;20227;-68
2023/03/05 10:04:52;;;;;;;20.07;18.27;;;27.70;22.10;;;;;;6252165;28;20231;-68
2023/03/05 10:08:01;;;;;;;20.10;18.30;;;29.10;20.50;;;;;;6252248;28;20235;-67
2023/03/05 10:11:12;;;;;;;18.30;16.80;;;29.70;19.50;;;;;;6246567;28;20239;-68
2023/03/05 10:14:22;;;;;;;20.10;18.30;;;29.40;19.60;;;;;;6251569;28;20570;-68
2023/03/05 10:17:54;;;;;;;19.83;17.93;;;28.10;20.20;;;;;;6251630;28;20659;-69
2023/03/05 10:21:04;;;;;;;18.70;17.07;;;28.40;20.90;;;;;;6242769;28;20234;-68
2023/03/05 10:24:16;;;;;;;20.50;18.80;;;29.40;19.90;;;;;;6253349;28;20228;-67
2023/03/05 10:27:21;;;;;;;19.70;18.00;;;29.90;19.90;;;;;;6253236;28;20251;-66
2023/03/05 10:30:53;;;;;;;19.20;17.60;;;29.80;19.20;;;;;;6251984;28;20309;-68
2023/03/05 10:34:10;;;;;;;19.70;17.87;;;29.50;19.70;;;;;;6251366;28;20246;-68
2023/03/05 10:37:49;;;;;;;21.33;19.27;;;29.90;19.20;;;;;;6226185;28;20672;-68
2023/03/05 10:40:55;;;;;;;19.53;17.73;;;29.80;19.60;;;;;;6186294;28;20234;-68
2023/03/05 10:44:04;;;;;;;19.55;17.95;;;30.50;19.20;;;;;;6250158;28;20531;-68
2023/03/05 10:47:17;;;;;;;20.30;18.40;;;29.80;18.90;;;;;;6249679;28;20223;-67
2023/03/05 10:50:23;;;;;;;20.83;19.07;;;27.70;20.90;;;;;;6250638;28;20236;-68
2023/03/05 10:53:32;;;;;;;19.90;18.10;;;28.10;20.50;;;;;;6251007;28;20224;-68
2023/03/05 10:56:35;;;;;;;20.53;18.53;;;29.20;20.30;;;;;;6251138;28;20235;-68
2023/03/05 10:59:41;;;;;;;20.65;18.95;;;29.60;19.70;;;;;;6250298;28;20232;-67
2023/03/05 11:02:57;;;;;;;20.63;18.83;;;30.90;18.70;;;;;;6243614;28;20647;-68
2023/03/05 11:06:03;;;;;;;20.75;18.73;;;29.50;19.80;;;;;;6237524;28;20299;-68
2023/03/05 11:09:25;;;;;;;20.40;18.40;;;31.20;18.90;;;;;;6237336;28;20679;-68
2023/03/05 11:12:30;;;;;;;19.88;18.08;;;31.40;17.70;;;;;;6240594;28;20232;-68
2023/03/05 11:15:34;;;;;;;19.38;17.63;;;32.40;16.60;;;;;;6234323;28;20223;-68
2023/03/05 11:18:38;;;;;;;20.25;18.45;;;31.40;17.60;;;;;;6249712;28;20310;-68
2023/03/05 11:21:42;;;;;;;21.00;19.13;;;30.40;18.20;;;;;;6241577;28;20224;-68
2023/03/05 11:25:05;;;;;;;20.27;18.10;;;30.40;18.50;;;;;;6240125;28;20261;-68
2023/03/05 11:28:19;;;;;;;20.90;19.00;;;28.90;17.90;;;;;;6243183;28;20223;-67
2023/03/05 11:31:35;;;;;;;21.20;19.40;;;27.80;18.60;;;;;;6234704;28;20642;-67
2023/03/05 11:34:39;;;;;;;19.90;18.10;;;28.60;18.90;;;;;;6239426;28;20369;-68
2023/03/05 11:37:42;;;;;;;20.20;18.40;;;28.60;19.30;;;;;;6237760;28;20228;-66
2023/03/05 11:40:49;;;;;;;19.80;17.90;;;28.60;19.10;;;;;;6241709;28;20228;-66
2023/03/05 11:43:54;;;;;;;22.40;20.10;;;29.40;18.50;;;;;;6236699;28;20220;-66
2023/03/05 11:47:00;;;;;;;20.70;18.70;;;26.40;20.50;;;;;;6239321;28;20220;-67
2023/03/05 11:50:16;;;;;;;19.07;17.17;;;26.00;20.90;;;;;;6238556;28;20600;-67
2023/03/05 11:53:27;;;;;;;19.97;18.17;;;25.80;21.10;;;;;;6237668;28;20362;-68
2023/03/05 11:56:34;;;;;;;19.83;17.97;;;26.50;20.70;;;;;;6236090;28;20224;-68
2023/03/05 11:59:39;;;;;;;19.23;17.30;;;27.50;20.10;;;;;;6237188;28;20259;-68
2023/03/05 12:02:44;;;;;;;19.13;17.33;;;27.20;19.80;;;;;;6239204;28;20230;-67
2023/03/05 12:05:51;;;;;;;19.77;17.97;;;28.70;18.50;;;;;;6232414;28;20341;-68
2023/03/05 12:08:58;;;;;;;18.23;16.60;;;30.20;18.20;;;;;;6249847;28;20680;-68
2023/03/05 12:12:12;;;;;;;17.38;15.68;;;32.50;16.70;;;;;;6249696;28;20227;-67
2023/03/05 12:15:45;;;;;;;20.85;18.98;;;31.90;16.10;;;;;;6249662;28;20228;-67
2023/03/05 12:18:57;;;;;;;18.45;16.35;;;32.90;15.50;;;;;;6245664;28;20239;-67
2023/03/05 12:22:03;;;;;;;19.85;18.02;;;32.90;15.50;;;;;;6249736;28;20667;-67
2023/03/05 12:25:27;;;;;;;18.85;17.15;;;34.20;14.80;;;;;;6249548;28;20227;-68
2023/03/05 12:28:57;;;;;;;18.88;17.17;;;34.60;14.40;;;;;;6250119;28;20258;-67
2023/03/05 12:32:01;;;;;;;19.33;17.52;;;33.70;14.60;;;;;;6235479;28;20246;-68
2023/03/05 12:35:05;;;;;;;17.30;15.75;;;33.70;14.40;;;;;;6252563;28;20234;-68
2023/03/05 12:38:29;;;;;;;18.35;16.75;;;33.30;14.80;;;;;;6253989;28;20243;-68
2023/03/05 12:41:36;;;;;;;17.60;16.10;;;33.60;14.40;;;;;;6252119;28;20330;-68
2023/03/05 12:44:41;;;;;;;16.15;14.65;;;34.50;14.00;;;;;;6251380;28;20232;-68
2023/03/05 12:47:45;;;;;;;18.42;16.83;;;34.80;13.80;;;;;;6241480;28;20672;-67
2023/03/05 12:50:51;;;;;;;18.33;16.63;;;32.50;14.50;;;;;;6241476;28;20240;-68
2023/03/05 12:53:56;;;;;;;18.08;16.27;;;32.40;15.00;;;;;;6236974;28;20532;-68
2023/03/05 12:57:01;;;;;;;17.48;15.88;;;33.30;14.50;;;;;;6239778;28;20231;-68
2023/03/05 13:00:12;;;;;;;17.08;15.52;;;32.90;14.50;;;;;;6240426;28;20233;-68
2023/03/05 13:03:19;;;;;;;18.30;16.70;;;33.90;14.30;;;;;;6266827;28;20233;-67
2023/03/05 13:06:26;;;;;;;19.30;17.42;;;32.00;15.00;;;;;;6268701;28;20698;-67
2023/03/05 13:09:35;;;;;;;18.27;16.77;;;32.90;14.60;;;;;;6252497;28;20306;-68
2023/03/05 13:12:40;;;;;;;18.60;16.83;;;32.90;14.60;;;;;;6253520;28;20316;-64
2023/03/05 13:15:48;;;;;;;17.55;15.95;;;31.00;15.60;;;;;;6256478;28;20227;-66
2023/03/05 13:18:55;;;;;;;18.30;16.35;;;31.90;15.20;;;;;;6254778;28;20675;-68
2023/03/05 13:22:03;;;;;;;18.42;15.80;;;32.00;14.70;;;;;;6249293;28;20686;-69
2023/03/05 13:25:19;;;;;;;17.23;15.52;;;31.10;15.10;;;;;;6253658;28;20263;-67
2023/03/05 13:28:24;;;;;;;17.20;15.57;;;30.90;15.60;;;;;;6229264;28;20314;-68
2023/03/05 13:31:30;;;;;;;18.35;16.75;;;31.20;15.60;;;;;;6228331;28;20200;-71
2023/03/05 13:34:36;;;;;;;17.35;15.80;;;31.40;15.10;;;;;;6232825;28;20272;-68
2023/03/05 13:37:50;;;;;;;17.73;15.93;;;32.10;14.60;;;;;;6251990;28;20247;-68
2023/03/05 13:41:24;;;;;;;16.05;14.40;;;31.60;14.50;;;;;;6252733;28;20242;-69
2023/03/05 13:44:30;;;;;;;16.42;14.93;;;31.10;15.10;;;;;;6250508;28;20224;-66
2023/03/05 13:47:37;;;;;;;17.75;16.15;;;31.40;15.10;;;;;;6227235;28;20648;-66
2023/03/05 13:50:41;;;;;;;17.57;15.73;;;30.60;15.20;;;;;;6227959;28;20312;-67
2023/03/05 13:53:47;;;;;;;17.73;15.90;;;28.70;16.50;;;;;;6227483;28;20573;-66
2023/03/05 13:56:55;;;;;;;17.30;15.60;;;27.10;17.20;;;;;;6228039;28;20236;-67
2023/03/05 14:00:03;;;;;;;16.40;14.80;;;24.90;18.90;;;;;;6227234;28;20271;-63
2023/03/05 14:03:21;;;;;;;17.20;15.40;;;23.10;20.30;;;;;;6261708;28;20703;-67
2023/03/05 14:06:28;;;;;;;17.87;12.90;;;21.50;21.50;;;;;;6267682;28;20220;-63
2023/03/05 14:09:45;;;;;;;14.83;13.23;;;20.50;22.30;;;;;;6251781;28;20274;-66
2023/03/05 14:12:51;;;;;;;17.20;14.20;;;19.60;23.20;;;;;;6252064;28;20315;-65
2023/03/05 14:16:06;;;;;;;15.07;12.63;;;18.60;24.30;;;;;;6251802;28;20238;-65
2023/03/05 14:19:34;;;;;;;13.50;12.10;;;17.80;25.40;;;;;;6251825;28;20358;-65
2023/03/05 14:22:39;;;;;;;13.40;12.10;;;16.60;26.40;;;;;;6247703;28;20443;-65
2023/03/05 14:25:46;;;;;;;14.87;13.27;;;15.90;27.40;;;;;;6249039;28;20471;-63
2023/03/05 14:28:54;;;;;;;20.97;13.27;;;15.80;27.40;;;;;;6234987;28;20463;-63
2023/03/05 14:32:01;;;;;;;15.37;12.87;;;15.80;27.80;;;;;;6234967;28;20468;-63
2023/03/05 14:35:18;;;;;;;17.53;13.10;;;15.40;28.10;;;;;;6237176;28;20480;-63
2023/03/05 14:38:26;;;;;;;18.43;14.73;;;14.70;28.90;;;;;;6237689;28;20537;-64
2023/03/05 14:41:43;;;;;;;15.70;11.53;;;14.20;29.70;;;;;;6247238;28;20825;-63
2023/03/05 14:44:51;;;;;;;14.83;12.63;;;14.30;29.70;;;;;;6250415;28;20825;-64
2023/03/05 14:47:58;;;;;;;15.43;12.67;;;14.50;29.80;;;;;;6246861;28;20471;-65
2023/03/05 14:51:08;;;;;;;14.00;12.40;;;14.20;30.20;;;;;;6250830;28;20479;-66
2023/03/05 14:54:20;;;;;;;19.70;14.13;;;13.70;31.40;;;;;;6250728;28;20479;-65
2023/03/05 14:57:27;;;;;;;14.90;12.53;;;13.60;31.80;;;;;;6249961;28;20533;-64
2023/03/05 15:00:34;;;;;;;14.20;11.97;;;13.70;31.50;;;;;;6250907;28;20463;-66
2023/03/05 15:03:40;;;;;;;15.30;12.80;;;13.60;31.80;;;;;;6253139;28;20529;-62
2023/03/05 15:06:50;;;;;;;19.37;15.17;;;13.40;33.50;;;;;;6238515;28;20518;-62
2023/03/05 15:09:54;;;;;;;20.53;16.63;;;13.30;35.30;;;;;;6227164;28;20563;-62
2023/03/05 15:13:00;;;;;;;19.00;15.17;;;12.90;36.30;;;;;;6232362;28;20476;-63
2023/03/05 15:16:06;;;;;;;19.03;15.60;;;12.40;37.40;;;;;;6226518;28;20898;-64
2023/03/05 15:19:13;;;;;;;18.40;14.40;;;12.40;37.90;;;;;;6226430;28;20484;-66
2023/03/05 15:22:19;;;;;;;17.73;13.67;;;12.30;37.70;;;;;;6226178;28;20476;-66
2023/03/05 15:25:27;;;;;;;18.20;13.90;;;12.20;38.20;;;;;;6225693;28;20561;-65
2023/03/05 15:28:33;;;;;;;20.83;15.70;;;12.30;38.60;;;;;;6216534;28;20460;-64
2023/03/05 15:31:41;;;;;;;15.73;13.43;;;12.10;39.30;;;;;;6225233;28;21193;-66
2023/03/05 15:34:46;;;;;;;18.87;15.70;;;12.00;39.10;;;;;;6230054;28;20463;-65
2023/03/05 15:37:54;;;;;;;17.23;15.30;;;12.20;39.20;;;;;;6249960;28;20493;-62
2023/03/05 15:41:00;;;;;;;17.27;13.47;;;12.10;38.80;;;;;;6252408;28;20459;-64
2023/03/05 15:44:05;;;;;;;18.40;13.57;;;11.80;39.40;;;;;;6250511;28;20512;-64
2023/03/05 15:47:10;;;;;;;21.70;14.80;;;11.70;40.20;;;;;;6249957;28;20477;-66
2023/03/05 15:50:14;;;;;;;15.53;12.93;;;11.80;40.60;;;;;;6249226;28;20774;-67
2023/03/05 15:53:22;;;;;;;20.70;15.40;;;11.70;40.30;;;;;;6249563;28;20486;-64